Time;durP1;ratioP1;P1;durP2;ratioP2;P2;SDS_P1;SDS_P2;PMS_P1;PMS_P2;Temp;Humidity;BMP_temperature;BMP_pressure;BME280_temperature;BME280_humidity;BME280_pressure;Samples;Min_cycle;Max_cycle;Signal;HPM_P1;HPM_P2
2022/10/23 00:01:28;;;;;;;8.68;5.35;;;14.30;99.90;;;;;;5065930;28;20044;-38
2022/10/23 00:03:57;;;;;;;6.70;4.50;;;14.30;99.90;;;;;;5072019;28;20035;-40
2022/10/23 00:06:23;;;;;;;6.95;4.07;;;14.30;99.90;;;;;;5066437;28;20271;-39
2022/10/23 00:08:49;;;;;;;5.20;4.20;;;14.30;99.90;;;;;;5069115;28;20027;-38
2022/10/23 00:11:21;;;;;;;6.03;4.18;;;14.20;99.90;;;;;;5069341;28;20056;-38
2022/10/23 00:13:47;;;;;;;7.13;4.03;;;14.20;99.90;;;;;;5066272;28;20150;-39
2022/10/23 00:16:13;;;;;;;6.45;4.50;;;14.20;99.90;;;;;;5071504;28;20070;-40
2022/10/23 00:18:39;;;;;;;6.10;4.18;;;14.20;99.90;;;;;;5064780;28;20020;-39
2022/10/23 00:21:06;;;;;;;4.70;4.20;;;14.20;99.90;;;;;;5074273;28;20062;-39
2022/10/23 00:23:32;;;;;;;5.88;4.20;;;14.20;99.90;;;;;;5064692;28;20111;-41
2022/10/23 00:25:59;;;;;;;7.78;4.10;;;14.10;99.90;;;;;;5074160;28;20028;-38
2022/10/23 00:28:24;;;;;;;5.95;3.88;;;14.10;99.90;;;;;;5062283;28;20025;-36
2022/10/23 00:30:50;;;;;;;6.47;4.10;;;14.10;99.90;;;;;;5074799;28;20081;-39
2022/10/23 00:33:15;;;;;;;5.90;3.75;;;14.10;99.90;;;;;;5062083;28;20029;-39
2022/10/23 00:35:41;;;;;;;6.63;4.18;;;14.10;99.90;;;;;;5075687;28;20052;-39
2022/10/23 00:38:08;;;;;;;5.90;4.05;;;14.10;99.90;;;;;;5062914;28;20028;-38
2022/10/23 00:40:34;;;;;;;8.10;4.47;;;14.10;99.90;;;;;;5074447;28;20115;-39
2022/10/23 00:43:00;;;;;;;6.40;4.20;;;14.10;99.90;;;;;;5063618;28;20024;-38
2022/10/23 00:45:32;;;;;;;7.35;4.25;;;14.10;99.90;;;;;;5071108;28;20042;-39
2022/10/23 00:48:01;;;;;;;7.60;4.32;;;14.10;99.90;;;;;;5065092;28;20109;-39
2022/10/23 00:50:31;;;;;;;6.20;4.07;;;14.10;99.90;;;;;;5070422;28;20028;-40
2022/10/23 00:53:03;;;;;;;5.95;4.10;;;14.10;99.90;;;;;;5067045;28;20109;-38
2022/10/23 00:55:32;;;;;;;7.63;4.03;;;14.10;99.90;;;;;;5067660;28;20028;-40
2022/10/23 00:57:58;;;;;;;5.47;3.75;;;14.10;99.90;;;;;;5073091;28;20035;-40
2022/10/23 01:00:46;;;;;;;8.43;4.20;;;14.10;99.90;;;;;;5077416;28;20032;-40
2022/10/23 01:03:14;;;;;;;4.63;3.72;;;14.10;99.90;;;;;;5077066;28;20020;-38
2022/10/23 01:06:15;;;;;;;7.57;3.92;;;14.10;99.90;;;;;;5077421;28;20475;-38
2022/10/23 01:09:15;;;;;;;5.97;4.10;;;14.10;99.90;;;;;;5062694;28;20041;-40
2022/10/23 01:11:53;;;;;;;6.00;3.38;;;14.10;99.90;;;;;;5028993;28;20043;-37
2022/10/23 01:14:53;;;;;;;5.18;3.60;;;14.10;99.90;;;;;;5062362;28;20043;-39
2022/10/23 01:17:39;;;;;;;5.75;3.85;;;14.10;99.90;;;;;;5073838;28;20024;-40
2022/10/23 01:20:44;;;;;;;6.20;4.10;;;14.10;99.90;;;;;;5062661;28;20139;-39
2022/10/23 01:23:41;;;;;;;5.47;3.30;;;14.10;99.90;;;;;;4969114;28;20034;-37
2022/10/23 01:26:31;;;;;;;6.15;3.70;;;14.10;99.90;;;;;;5082841;28;20031;-39
2022/10/23 01:29:13;;;;;;;6.63;3.58;;;14.10;99.90;;;;;;5080883;28;20081;-39
2022/10/23 01:31:45;;;;;;;5.20;3.53;;;14.10;99.90;;;;;;5079877;28;20041;-39
2022/10/23 01:34:45;;;;;;;7.65;3.70;;;14.10;99.90;;;;;;5081505;28;20038;-40
2022/10/23 01:37:14;;;;;;;6.80;3.92;;;14.10;99.90;;;;;;5069503;28;20051;-38
2022/10/23 01:39:44;;;;;;;7.47;3.95;;;14.00;99.90;;;;;;5083455;28;20036;-40
2022/10/23 01:42:24;;;;;;;7.07;4.18;;;14.00;99.90;;;;;;5078226;28;20020;-40
2022/10/23 01:45:00;;;;;;;5.50;3.80;;;14.00;99.90;;;;;;5083225;28;20043;-37
2022/10/23 01:47:27;;;;;;;4.93;3.65;;;14.00;99.90;;;;;;5077251;28;20036;-40
2022/10/23 01:49:58;;;;;;;10.88;4.10;;;14.00;99.90;;;;;;5081960;28;20038;-39
2022/10/23 01:52:23;;;;;;;5.22;4.10;;;14.00;99.90;;;;;;5078242;28;20031;-40
2022/10/23 01:54:52;;;;;;;7.28;4.47;;;14.00;99.90;;;;;;5080293;28;20036;-37
2022/10/23 01:57:21;;;;;;;6.55;3.67;;;14.00;99.90;;;;;;5080636;28;20035;-39
2022/10/23 01:59:57;;;;;;;9.32;4.10;;;14.00;99.90;;;;;;5065528;28;20079;-39
2022/10/23 02:02:27;;;;;;;6.13;3.95;;;14.00;99.90;;;;;;5068690;28;20117;-39
2022/10/23 02:05:15;;;;;;;8.65;4.05;;;14.00;99.90;;;;;;5073971;28;20112;-39
2022/10/23 02:07:42;;;;;;;7.25;3.97;;;14.00;99.90;;;;;;5068922;28;20052;-39
2022/10/23 02:10:09;;;;;;;7.68;4.13;;;14.00;99.90;;;;;;5072106;28;20033;-40
2022/10/23 02:12:37;;;;;;;7.30;4.30;;;14.00;99.90;;;;;;5067323;28;20020;-40
2022/10/23 02:15:08;;;;;;;7.07;4.35;;;14.00;99.90;;;;;;5075542;28;20141;-39
2022/10/23 02:17:55;;;;;;;7.95;4.60;;;14.00;99.90;;;;;;5066159;28;20025;-38
2022/10/23 02:20:24;;;;;;;8.02;4.80;;;14.00;99.90;;;;;;5075924;28;20071;-40
2022/10/23 02:22:59;;;;;;;6.97;4.63;;;14.00;99.90;;;;;;5084612;28;20028;-37
2022/10/23 02:25:42;;;;;;;6.28;4.93;;;14.00;99.90;;;;;;5074136;28;20529;-40
2022/10/23 02:28:12;;;;;;;8.05;5.32;;;13.90;99.90;;;;;;5066727;28;20067;-39
2022/10/23 02:30:43;;;;;;;7.85;5.32;;;13.90;99.90;;;;;;5076555;28;20127;-40
2022/10/23 02:33:11;;;;;;;9.55;5.70;;;13.90;99.90;;;;;;5079714;28;20105;-41
2022/10/23 02:35:36;;;;;;;7.43;5.55;;;13.80;99.90;;;;;;5074442;28;20145;-38
2022/10/23 02:38:02;;;;;;;9.23;4.97;;;13.80;99.90;;;;;;5066095;28;20107;-38
2022/10/23 02:40:42;;;;;;;6.38;5.18;;;13.80;99.90;;;;;;5075073;28;20774;-39
2022/10/23 02:43:16;;;;;;;12.20;6.43;;;13.80;99.90;;;;;;5066094;28;20020;-40
2022/10/23 02:46:38;;;;;;;7.57;5.20;;;13.70;99.90;;;;;;5075739;28;20430;-39
2022/10/23 02:49:37;;;;;;;8.15;4.68;;;13.70;99.90;;;;;;4966789;28;20085;-39
2022/10/23 02:52:40;;;;;;;6.47;4.45;;;13.70;99.90;;;;;;4930411;28;20069;-41
2022/10/23 02:55:34;;;;;;;6.85;4.70;;;13.70;99.90;;;;;;5071861;28;20066;-38
2022/10/23 02:58:17;;;;;;;6.28;4.63;;;13.70;99.90;;;;;;5065833;28;20039;-41
2022/10/23 03:00:49;;;;;;;7.30;5.10;;;13.60;99.90;;;;;;5077335;28;20547;-40
2022/10/23 03:03:28;;;;;;;6.75;5.22;;;13.60;99.90;;;;;;5064062;28;20067;-38
2022/10/23 03:05:57;;;;;;;6.72;4.95;;;13.70;99.90;;;;;;5072210;28;20023;-40
2022/10/23 03:08:23;;;;;;;7.68;5.03;;;13.60;99.90;;;;;;5083905;28;20028;-40
2022/10/23 03:10:50;;;;;;;7.45;5.13;;;13.60;99.90;;;;;;5071041;28;20055;-39
2022/10/23 03:13:16;;;;;;;6.47;4.95;;;13.60;99.90;;;;;;5082832;28;20032;-39
2022/10/23 03:15:42;;;;;;;7.28;5.32;;;13.60;99.90;;;;;;5070827;28;20052;-37
2022/10/23 03:18:07;;;;;;;8.25;5.35;;;13.60;99.90;;;;;;5082601;28;20032;-39
2022/10/23 03:20:33;;;;;;;7.20;5.20;;;13.70;99.90;;;;;;5075299;28;20028;-40
2022/10/23 03:22:58;;;;;;;7.05;5.32;;;13.70;99.90;;;;;;5080221;28;20694;-38
2022/10/23 03:25:24;;;;;;;9.30;5.47;;;13.70;99.90;;;;;;5077778;28;20550;-43
2022/10/23 03:27:49;;;;;;;9.18;5.60;;;13.70;99.90;;;;;;5077571;28;20375;-40
2022/10/23 03:30:16;;;;;;;10.07;5.35;;;13.60;99.90;;;;;;5079871;28;20141;-39
2022/10/23 03:32:41;;;;;;;6.03;4.93;;;13.70;99.90;;;;;;5074807;28;20113;-38
2022/10/23 03:35:07;;;;;;;8.05;5.57;;;13.70;99.90;;;;;;5082164;28;20115;-37
2022/10/23 03:37:33;;;;;;;10.35;6.00;;;13.60;99.90;;;;;;5072451;28;20497;-39
2022/10/23 03:39:58;;;;;;;8.50;5.10;;;13.60;99.90;;;;;;5082112;28;20024;-39
2022/10/23 03:42:24;;;;;;;6.35;5.03;;;13.60;99.90;;;;;;5072631;28;20031;-39
2022/10/23 03:44:49;;;;;;;7.88;5.05;;;13.60;99.90;;;;;;5083961;28;20821;-40
2022/10/23 03:47:15;;;;;;;9.73;5.97;;;13.60;99.90;;;;;;5070558;28;20419;-39
2022/10/23 03:49:40;;;;;;;8.80;6.10;;;13.60;99.90;;;;;;5084348;28;20038;-38
2022/10/23 03:52:07;;;;;;;11.95;6.95;;;13.60;99.90;;;;;;5070380;28;20320;-39
2022/10/23 03:54:32;;;;;;;11.13;6.68;;;13.60;99.90;;;;;;5083871;28;20035;-40
2022/10/23 03:56:58;;;;;;;8.32;6.22;;;13.60;99.90;;;;;;5073537;28;20024;-39
2022/10/23 03:59:24;;;;;;;10.98;6.60;;;13.60;99.90;;;;;;5064711;28;20868;-38
2022/10/23 04:01:50;;;;;;;9.82;6.65;;;13.60;99.90;;;;;;5072004;28;20042;-39
2022/10/23 04:04:16;;;;;;;6.53;4.90;;;13.60;99.90;;;;;;5067416;28;20037;-39
2022/10/23 04:06:41;;;;;;;7.63;5.10;;;13.60;99.90;;;;;;5069196;28;20073;-39
2022/10/23 04:09:07;;;;;;;8.40;5.20;;;13.60;99.90;;;;;;5071205;28;20032;-38
2022/10/23 04:11:33;;;;;;;7.30;5.47;;;13.60;99.90;;;;;;5065322;28;20293;-37
2022/10/23 04:13:58;;;;;;;9.73;5.68;;;13.60;99.90;;;;;;5072980;28;20731;-36
2022/10/23 04:16:25;;;;;;;10.18;5.85;;;13.60;99.90;;;;;;5063584;28;20047;-39
2022/10/23 04:18:54;;;;;;;6.63;5.55;;;13.60;99.90;;;;;;5073682;28;20091;-41
2022/10/23 04:21:19;;;;;;;10.50;5.50;;;13.60;99.90;;;;;;5063489;28;20024;-39
2022/10/23 04:23:45;;;;;;;8.50;5.80;;;13.60;99.90;;;;;;5073743;28;20056;-41
2022/10/23 04:26:11;;;;;;;7.90;4.97;;;13.60;99.90;;;;;;5061551;28;20080;-39
2022/10/23 04:28:37;;;;;;;6.78;4.78;;;13.60;99.90;;;;;;5075422;28;20020;-39
2022/10/23 04:31:02;;;;;;;5.45;4.70;;;13.60;99.90;;;;;;5062563;28;20056;-40
2022/10/23 04:33:28;;;;;;;7.03;4.68;;;13.60;99.90;;;;;;5074255;28;20110;-37
2022/10/23 04:35:53;;;;;;;6.50;4.50;;;13.60;99.90;;;;;;5063109;28;20144;-36
2022/10/23 04:38:19;;;;;;;6.63;4.78;;;13.60;99.90;;;;;;5073024;28;20024;-39
2022/10/23 04:40:47;;;;;;;6.68;4.00;;;13.60;99.90;;;;;;5064346;28;20509;-38
2022/10/23 04:43:13;;;;;;;7.25;4.32;;;13.60;99.90;;;;;;5069381;28;20495;-39
2022/10/23 04:45:38;;;;;;;6.65;4.13;;;13.60;99.90;;;;;;5067422;28;20571;-39
2022/10/23 04:48:04;;;;;;;6.07;4.20;;;13.60;99.90;;;;;;5066942;28;20031;-37
2022/10/23 04:50:29;;;;;;;5.28;4.40;;;13.60;99.90;;;;;;5070048;28;20525;-38
2022/10/23 04:52:56;;;;;;;7.50;4.90;;;13.60;99.90;;;;;;5065566;28;20741;-38
2022/10/23 04:55:24;;;;;;;9.43;4.68;;;13.60;99.90;;;;;;5071430;28;20040;-40
2022/10/23 04:57:52;;;;;;;7.22;4.75;;;13.60;99.90;;;;;;5066487;28;20803;-39
2022/10/23 05:00:18;;;;;;;7.20;4.80;;;13.60;99.90;;;;;;5070860;28;20068;-39
2022/10/23 05:02:44;;;;;;;7.90;4.75;;;13.60;99.90;;;;;;5063809;28;20021;-39
2022/10/23 05:05:13;;;;;;;6.93;4.82;;;13.60;99.90;;;;;;5074150;28;20035;-37
2022/10/23 05:07:39;;;;;;;7.72;4.30;;;13.60;99.90;;;;;;5062609;28;20103;-39
2022/10/23 05:10:05;;;;;;;6.68;4.63;;;13.70;99.90;;;;;;5075081;28;20031;-40
2022/10/23 05:12:31;;;;;;;5.97;4.50;;;13.60;99.90;;;;;;5062240;28;20494;-39
2022/10/23 05:14:56;;;;;;;6.72;4.18;;;13.70;99.90;;;;;;5074131;28;20032;-39
2022/10/23 05:17:35;;;;;;;8.27;4.85;;;13.70;99.90;;;;;;5061936;28;20035;-39
2022/10/23 05:20:04;;;;;;;9.57;4.72;;;13.70;99.90;;;;;;5075240;28;20031;-37
2022/10/23 05:22:33;;;;;;;8.60;5.05;;;13.70;99.90;;;;;;5061720;28;20075;-38
2022/10/23 05:25:00;;;;;;;10.10;5.05;;;13.80;99.90;;;;;;5073962;28;20118;-38
2022/10/23 05:27:27;;;;;;;7.30;4.93;;;13.70;99.90;;;;;;5063537;28;20078;-41
2022/10/23 05:29:52;;;;;;;6.35;4.80;;;13.80;99.90;;;;;;5069744;28;20024;-40
2022/10/23 05:32:18;;;;;;;9.55;5.10;;;13.70;99.90;;;;;;5065074;28;20048;-39
2022/10/23 05:34:50;;;;;;;8.80;4.38;;;13.70;99.90;;;;;;5067680;28;20093;-40
2022/10/23 05:37:16;;;;;;;7.85;4.35;;;13.80;99.90;;;;;;5067021;28;20021;-40
2022/10/23 05:39:42;;;;;;;6.28;4.38;;;13.70;99.90;;;;;;5066499;28;20024;-38
2022/10/23 05:42:08;;;;;;;6.95;4.60;;;13.80;99.90;;;;;;5069128;28;20891;-40
2022/10/23 05:44:36;;;;;;;6.38;4.60;;;13.80;99.90;;;;;;5063484;28;20032;-39
2022/10/23 05:47:02;;;;;;;6.40;4.32;;;13.80;99.90;;;;;;5072549;28;20151;-39
2022/10/23 05:49:27;;;;;;;5.72;4.05;;;13.90;99.90;;;;;;5063120;28;20103;-37
2022/10/23 05:51:53;;;;;;;6.95;4.15;;;13.90;99.90;;;;;;5072525;28;20041;-40
2022/10/23 05:54:18;;;;;;;7.65;3.97;;;14.00;99.90;;;;;;5062791;28;20036;-39
2022/10/23 05:56:44;;;;;;;8.57;4.03;;;14.00;99.90;;;;;;5073176;28;20537;-39
2022/10/23 05:59:09;;;;;;;8.32;4.32;;;14.00;99.90;;;;;;5074092;28;20046;-39
2022/10/23 06:01:36;;;;;;;5.90;4.28;;;14.10;99.90;;;;;;5069459;28;20467;-36
2022/10/23 06:04:03;;;;;;;5.75;4.22;;;14.10;99.90;;;;;;5082518;28;20028;-37
2022/10/23 06:06:28;;;;;;;5.90;4.03;;;14.10;99.90;;;;;;5069844;28;20028;-38
2022/10/23 06:08:54;;;;;;;7.63;4.63;;;14.10;99.90;;;;;;5082295;28;20024;-39
2022/10/23 06:11:23;;;;;;;5.65;4.80;;;14.10;99.90;;;;;;5073852;28;20115;-37
2022/10/23 06:13:54;;;;;;;9.05;4.75;;;14.10;99.90;;;;;;5083225;28;20031;-39
2022/10/23 06:16:24;;;;;;;6.07;4.20;;;14.10;99.90;;;;;;5077317;28;20487;-40
2022/10/23 06:18:50;;;;;;;8.25;4.72;;;14.10;99.90;;;;;;5081554;28;20373;-40
2022/10/23 06:21:18;;;;;;;7.60;4.10;;;14.10;99.90;;;;;;5079143;28;20107;-38
2022/10/23 06:23:45;;;;;;;8.65;4.20;;;14.10;99.90;;;;;;5079784;28;20696;-35
2022/10/23 06:26:13;;;;;;;6.90;3.88;;;14.10;99.90;;;;;;5080866;28;20728;-37
2022/10/23 06:28:39;;;;;;;7.53;4.00;;;14.20;99.90;;;;;;5077822;28;20024;-35
2022/10/23 06:31:12;;;;;;;8.20;3.97;;;14.20;99.90;;;;;;5084295;28;20165;-36
2022/10/23 06:33:37;;;;;;;;;;;14.20;99.90;;;;;;5076003;28;20604;-39
2022/10/23 06:36:09;;;;;;;8.00;4.55;;;14.20;99.90;;;;;;5084595;28;19920;-39
2022/10/23 06:38:39;;;;;;;5.70;4.30;;;14.10;99.90;;;;;;5074889;28;20020;-39
2022/10/23 06:41:07;;;;;;;6.43;4.15;;;14.10;99.90;;;;;;5084316;28;20123;-40
2022/10/23 06:43:32;;;;;;;5.10;4.28;;;14.10;99.90;;;;;;5074274;28;20020;-39
2022/10/23 06:46:02;;;;;;;5.07;4.32;;;14.10;99.90;;;;;;5084909;28;20035;-38
2022/10/23 06:48:28;;;;;;;9.30;4.90;;;14.10;99.90;;;;;;5073370;28;20055;-37
2022/10/23 06:50:54;;;;;;;7.15;4.22;;;14.20;99.90;;;;;;5076289;28;20116;-40
2022/10/23 06:53:22;;;;;;;7.10;4.57;;;14.20;99.90;;;;;;5077208;28;20704;-40
2022/10/23 06:55:48;;;;;;;7.47;4.65;;;14.20;99.90;;;;;;5065299;28;20079;-40
2022/10/23 06:58:16;;;;;;;9.20;4.65;;;14.20;99.90;;;;;;5069501;28;20131;-40
2022/10/23 07:00:43;;;;;;;7.10;4.47;;;14.30;99.90;;;;;;5078421;28;20020;-41
2022/10/23 07:03:09;;;;;;;6.15;4.55;;;14.30;99.90;;;;;;5081584;28;20023;-40
2022/10/23 07:05:35;;;;;;;6.47;4.20;;;14.30;99.90;;;;;;5081262;28;20031;-40
2022/10/23 07:08:03;;;;;;;7.13;4.47;;;14.30;99.90;;;;;;5082462;28;20032;-40
2022/10/23 07:10:29;;;;;;;7.28;4.68;;;14.30;99.90;;;;;;5083568;28;20050;-40
2022/10/23 07:12:59;;;;;;;8.07;4.03;;;14.30;99.90;;;;;;5082503;28;20462;-40
2022/10/23 07:15:26;;;;;;;5.93;4.05;;;14.30;99.90;;;;;;5082719;28;20728;-39
2022/10/23 07:17:52;;;;;;;6.22;4.20;;;14.30;99.90;;;;;;5080446;28;20012;-40
2022/10/23 07:20:17;;;;;;;6.57;4.07;;;14.40;99.90;;;;;;5074579;28;20028;-40
2022/10/23 07:22:43;;;;;;;6.55;4.00;;;14.30;99.90;;;;;;5081193;28;20019;-39
2022/10/23 07:25:08;;;;;;;5.72;3.83;;;14.40;99.90;;;;;;5083232;28;20507;-39
2022/10/23 07:27:37;;;;;;;4.88;3.90;;;14.40;99.90;;;;;;5083311;28;20020;-39
2022/10/23 07:30:04;;;;;;;7.28;3.75;;;14.40;99.90;;;;;;5082974;28;20478;-38
2022/10/23 07:32:29;;;;;;;5.45;3.83;;;14.40;99.90;;;;;;5082829;28;20797;-39
2022/10/23 07:34:55;;;;;;;7.35;3.70;;;14.50;99.90;;;;;;5082345;28;20135;-40
2022/10/23 07:37:20;;;;;;;7.70;4.10;;;14.50;99.90;;;;;;5082735;28;20135;-38
2022/10/23 07:39:46;;;;;;;7.18;3.78;;;14.50;99.90;;;;;;5063701;28;20127;-42
2022/10/23 07:42:11;;;;;;;5.15;3.83;;;14.50;99.90;;;;;;5083488;28;20027;-40
2022/10/23 07:44:37;;;;;;;6.10;4.03;;;14.60;99.90;;;;;;5071837;28;20116;-40
2022/10/23 07:47:02;;;;;;;6.35;3.90;;;14.60;99.90;;;;;;5082260;28;20020;-37
2022/10/23 07:49:28;;;;;;;6.07;3.70;;;14.60;99.90;;;;;;5082109;28;20024;-38
2022/10/23 07:51:57;;;;;;;6.40;4.13;;;14.70;99.90;;;;;;5083444;28;20027;-40
2022/10/23 07:54:23;;;;;;;6.53;4.13;;;14.70;99.90;;;;;;5078972;28;20566;-41
2022/10/23 07:56:48;;;;;;;6.47;3.92;;;14.70;99.90;;;;;;5082072;28;20124;-39
2022/10/23 07:59:14;;;;;;;5.43;3.72;;;14.80;99.90;;;;;;5073995;28;20070;-39
2022/10/23 08:01:45;;;;;;;6.68;4.10;;;14.80;99.90;;;;;;5083325;28;20028;-39
2022/10/23 08:04:11;;;;;;;6.10;3.67;;;14.80;99.90;;;;;;5080480;28;20352;-40
2022/10/23 08:06:37;;;;;;;6.68;3.42;;;14.80;99.90;;;;;;5076315;28;20031;-41
2022/10/23 08:09:03;;;;;;;5.90;3.40;;;14.90;99.90;;;;;;5080863;28;20027;-39
2022/10/23 08:11:34;;;;;;;7.88;3.67;;;14.90;99.90;;;;;;5079980;28;20036;-40
2022/10/23 08:14:01;;;;;;;4.13;3.15;;;14.90;99.90;;;;;;5081982;28;20024;-41
2022/10/23 08:16:27;;;;;;;5.65;3.85;;;14.90;99.90;;;;;;5075056;28;20028;-39
2022/10/23 08:18:52;;;;;;;4.35;3.40;;;15.00;99.90;;;;;;5081305;28;20051;-40
2022/10/23 08:21:18;;;;;;;5.82;4.20;;;14.90;99.90;;;;;;5073792;28;20032;-39
2022/10/23 08:23:44;;;;;;;7.00;3.70;;;15.00;99.90;;;;;;5079787;28;20028;-38
2022/10/23 08:26:10;;;;;;;7.63;3.58;;;15.00;99.90;;;;;;5067133;28;20032;-40
2022/10/23 08:28:36;;;;;;;7.30;3.60;;;15.00;99.90;;;;;;5069277;28;20665;-38
2022/10/23 08:31:17;;;;;;;6.50;3.45;;;15.00;99.90;;;;;;5072517;28;20027;-39
2022/10/23 08:33:43;;;;;;;4.55;3.28;;;15.10;99.90;;;;;;5081154;28;20039;-41
2022/10/23 08:36:24;;;;;;;7.95;3.40;;;15.10;99.90;;;;;;5073094;28;20040;-39
2022/10/23 08:38:54;;;;;;;6.20;3.40;;;15.20;99.90;;;;;;5081607;28;20028;-39
2022/10/23 08:41:31;;;;;;;5.18;3.67;;;15.20;99.90;;;;;;5076606;28;20031;-39
2022/10/23 08:44:00;;;;;;;6.22;3.45;;;15.20;99.90;;;;;;5081837;28;20027;-39
2022/10/23 08:46:30;;;;;;;4.78;3.75;;;15.20;99.90;;;;;;5076309;28;20047;-40
2022/10/23 08:49:12;;;;;;;6.78;3.60;;;15.30;99.90;;;;;;5080588;28;20020;-40
2022/10/23 08:51:57;;;;;;;;;;;15.30;99.90;;;;;;5067476;28;20032;-40
2022/10/23 08:54:53;;;;;;;4.97;3.38;;;15.40;99.90;;;;;;5080675;28;20087;-40
2022/10/23 08:57:22;;;;;;;6.63;3.38;;;15.40;99.90;;;;;;5060557;28;20083;-40
2022/10/23 08:59:56;;;;;;;5.95;3.05;;;15.40;99.90;;;;;;5065864;28;20027;-40
2022/10/23 09:02:40;;;;;;;3.53;2.92;;;15.50;99.90;;;;;;5074653;28;20035;-40
2022/10/23 09:05:23;;;;;;;4.40;3.00;;;15.50;99.90;;;;;;5068141;28;20024;-39
2022/10/23 09:07:59;;;;;;;5.82;3.03;;;15.60;99.90;;;;;;5075889;28;20028;-41
2022/10/23 09:10:47;;;;;;;6.28;2.97;;;15.70;99.90;;;;;;5062064;28;20052;-40
2022/10/23 09:13:45;;;;;;;5.18;2.90;;;15.70;99.90;;;;;;5070381;28;20032;-38
2022/10/23 09:16:36;;;;;;;6.47;3.22;;;15.70;99.90;;;;;;5081164;28;20039;-40
2022/10/23 09:19:08;;;;;;;5.45;3.35;;;15.80;99.90;;;;;;5071946;28;20016;-39
2022/10/23 09:21:35;;;;;;;6.72;2.90;;;15.80;99.90;;;;;;5080255;28;20024;-39
2022/10/23 09:24:00;;;;;;;6.63;3.28;;;15.90;99.90;;;;;;5071698;28;20063;-40
2022/10/23 09:26:26;;;;;;;5.45;3.20;;;15.90;99.90;;;;;;5080885;28;20036;-40
2022/10/23 09:29:01;;;;;;;4.15;2.85;;;15.90;99.90;;;;;;5070358;28;20031;-39
2022/10/23 09:31:26;;;;;;;3.72;2.63;;;15.90;99.90;;;;;;5082068;28;20059;-40
2022/10/23 09:34:00;;;;;;;4.57;2.60;;;15.90;99.90;;;;;;5069028;28;20148;-39
2022/10/23 09:36:28;;;;;;;3.75;2.55;;;15.90;99.90;;;;;;5081726;28;20536;-39
2022/10/23 09:38:58;;;;;;;4.75;2.63;;;15.90;99.90;;;;;;5070519;28;20021;-38
2022/10/23 09:41:35;;;;;;;5.30;3.00;;;16.00;99.90;;;;;;5082275;28;20494;-39
2022/10/23 09:44:21;;;;;;;4.63;2.53;;;16.00;99.90;;;;;;5069300;28;20025;-40
2022/10/23 09:46:49;;;;;;;6.13;2.92;;;16.00;99.90;;;;;;5085608;28;20390;-38
2022/10/23 09:49:30;;;;;;;6.13;2.50;;;16.00;99.90;;;;;;5072221;28;20020;-39
2022/10/23 09:51:59;;;;;;;4.28;2.70;;;16.10;99.90;;;;;;5084163;28;20058;-40
2022/10/23 09:54:25;;;;;;;3.70;2.30;;;16.00;99.90;;;;;;5078613;28;20115;-40
2022/10/23 09:57:03;;;;;;;4.95;2.63;;;16.00;99.90;;;;;;5084895;28;20028;-41
2022/10/23 09:59:31;;;;;;;6.63;2.80;;;16.10;99.90;;;;;;5068941;28;20498;-37
2022/10/23 10:01:59;;;;;;;4.13;2.72;;;16.20;99.90;;;;;;5068115;28;20506;-41
2022/10/23 10:04:32;;;;;;;4.78;2.55;;;16.20;99.90;;;;;;5080293;28;20028;-40
2022/10/23 10:07:00;;;;;;;4.13;2.63;;;16.20;99.90;;;;;;5083961;28;20055;-39
2022/10/23 10:09:26;;;;;;;5.72;2.75;;;16.20;99.90;;;;;;5078472;28;20024;-42
2022/10/23 10:12:01;;;;;;;5.18;2.75;;;16.30;99.90;;;;;;5067043;28;20035;-39
2022/10/23 10:14:44;;;;;;;5.43;2.38;;;16.30;99.90;;;;;;5075548;28;20115;-38
2022/10/23 10:17:21;;;;;;;3.28;2.45;;;16.40;99.90;;;;;;5065721;28;20028;-40
2022/10/23 10:20:12;;;;;;;3.78;2.50;;;16.40;99.90;;;;;;5077224;28;20059;-40
2022/10/23 10:22:46;;;;;;;5.75;2.95;;;16.50;99.90;;;;;;5065578;28;20055;-40
2022/10/23 10:25:35;;;;;;;4.10;2.38;;;16.50;99.90;;;;;;5077577;28;20043;-41
2022/10/23 10:28:28;;;;;;;5.53;2.55;;;16.60;99.90;;;;;;5066406;28;20074;-40
2022/10/23 10:31:21;;;;;;;5.38;3.22;;;16.70;99.90;;;;;;5073531;28;20477;-41
2022/10/23 10:34:05;;;;;;;5.78;2.78;;;16.80;99.90;;;;;;5084111;28;20032;-41
2022/10/23 10:36:36;;;;;;;5.22;2.63;;;16.80;99.90;;;;;;5072058;28;20043;-41
2022/10/23 10:39:21;;;;;;;5.13;2.60;;;16.80;99.90;;;;;;5083295;28;20016;-36
2022/10/23 10:42:19;;;;;;;4.40;3.00;;;16.90;99.90;;;;;;5074762;28;20060;-37
2022/10/23 10:44:49;;;;;;;4.43;2.60;;;16.90;99.90;;;;;;5038716;28;20060;-38
2022/10/23 10:47:32;;;;;;;5.10;2.40;;;16.90;99.90;;;;;;5075181;28;20130;-39
2022/10/23 10:50:20;;;;;;;2.97;2.35;;;17.00;99.90;;;;;;5080870;28;20860;-40
2022/10/23 10:53:03;;;;;;;3.28;2.38;;;17.00;99.90;;;;;;5078701;28;20059;-40
2022/10/23 10:55:39;;;;;;;6.53;2.95;;;17.00;99.90;;;;;;5077699;28;20082;-41
2022/10/23 10:58:16;;;;;;;5.22;2.60;;;16.90;99.90;;;;;;5079575;28;20028;-41
2022/10/23 11:00:44;;;;;;;5.13;2.50;;;17.00;99.90;;;;;;5071034;28;20016;-41
2022/10/23 11:03:18;;;;;;;4.25;2.53;;;17.00;99.90;;;;;;5070235;28;20074;-40
2022/10/23 11:05:46;;;;;;;4.55;2.45;;;17.00;99.90;;;;;;5070642;28;20028;-40
2022/10/23 11:08:23;;;;;;;4.57;2.65;;;17.00;99.90;;;;;;5069387;28;20036;-40
2022/10/23 11:10:53;;;;;;;5.80;2.85;;;17.00;99.90;;;;;;5069649;28;20505;-40
2022/10/23 11:13:35;;;;;;;3.75;2.20;;;17.10;99.90;;;;;;5069935;28;20127;-40
2022/10/23 11:16:08;;;;;;;3.67;2.25;;;17.10;99.90;;;;;;5069907;28;20060;-41
2022/10/23 11:18:36;;;;;;;5.15;2.55;;;17.20;99.90;;;;;;5070727;28;20033;-39
2022/10/23 11:21:18;;;;;;;4.53;2.72;;;17.20;99.90;;;;;;5067499;28;20028;-40
2022/10/23 11:24:12;;;;;;;4.60;2.23;;;17.30;99.90;;;;;;5070622;28;20032;-39
2022/10/23 11:26:50;;;;;;;3.45;2.45;;;17.30;99.90;;;;;;5035153;28;20381;-40
2022/10/23 11:29:39;;;;;;;4.30;2.30;;;17.30;99.90;;;;;;5065993;28;20534;-38
2022/10/23 11:32:30;;;;;;;2.92;2.10;;;17.40;99.90;;;;;;5073781;28;20052;-39
2022/10/23 11:35:35;;;;;;;3.38;1.90;;;17.40;99.90;;;;;;5063480;28;20032;-40
2022/10/23 11:38:18;;;;;;;3.53;2.00;;;17.50;99.90;;;;;;5075854;28;20047;-39
2022/10/23 11:40:53;;;;;;;4.65;1.95;;;17.50;99.90;;;;;;5064146;28;20021;-40
2022/10/23 11:43:32;;;;;;;5.40;1.80;;;17.60;99.90;;;;;;5071785;28;20548;-39
2022/10/23 11:45:57;;;;;;;4.82;2.20;;;17.70;99.90;;;;;;5084536;28;20031;-40
2022/10/23 11:48:38;;;;;;;3.30;2.08;;;17.70;99.90;;;;;;5070322;28;20020;-39
2022/10/23 11:51:04;;;;;;;4.75;2.10;;;17.80;99.90;;;;;;5084815;28;20044;-39
2022/10/23 11:53:29;;;;;;;3.03;2.08;;;17.80;99.90;;;;;;5071528;28;20020;-39
2022/10/23 11:55:58;;;;;;;3.08;1.92;;;17.90;99.90;;;;;;5084181;28;20799;-40
2022/10/23 11:58:30;;;;;;;2.63;2.00;;;17.90;99.90;;;;;;5070525;28;20031;-38
2022/10/23 12:01:18;;;;;;;4.88;2.10;;;17.90;99.90;;;;;;5064365;28;20078;-39
2022/10/23 12:03:52;;;;;;;2.25;1.92;;;17.90;99.90;;;;;;5076066;28;20036;-39
2022/10/23 12:06:24;;;;;;;2.92;1.88;;;18.00;99.90;;;;;;5063459;28;20032;-40
2022/10/23 12:08:53;;;;;;;4.70;2.25;;;18.00;99.90;;;;;;5075544;28;20123;-40
2022/10/23 12:11:27;;;;;;;3.40;1.98;;;18.00;99.90;;;;;;5062694;28;20036;-41
2022/10/23 12:13:53;;;;;;;3.20;2.00;;;18.10;99.90;;;;;;5076041;28;20039;-36
2022/10/23 12:16:19;;;;;;;3.58;2.13;;;18.20;99.90;;;;;;5063113;28;20033;-41
2022/10/23 12:18:53;;;;;;;4.15;2.03;;;18.20;99.90;;;;;;5073570;28;20061;-41
2022/10/23 12:21:27;;;;;;;3.90;2.13;;;18.20;99.90;;;;;;5064417;28;20021;-40
2022/10/23 12:24:23;;;;;;;4.78;2.10;;;18.30;99.90;;;;;;5073393;28;20785;-39
2022/10/23 12:27:13;;;;;;;4.07;2.05;;;18.30;99.90;;;;;;5063738;28;20024;-40
2022/10/23 12:29:54;;;;;;;5.53;2.05;;;18.40;99.90;;;;;;5076023;28;20043;-40
2022/10/23 12:32:45;;;;;;;3.25;1.70;;;18.40;99.90;;;;;;5062507;28;20660;-40
2022/10/23 12:35:17;;;;;;;3.72;1.85;;;18.40;99.90;;;;;;5074487;28;20075;-40
2022/10/23 12:38:02;;;;;;;2.77;1.80;;;18.40;99.90;;;;;;5062664;28;20127;-40
2022/10/23 12:40:30;;;;;;;2.53;1.60;;;18.50;99.90;;;;;;5074372;28;20717;-40
2022/10/23 12:43:00;;;;;;;4.30;2.00;;;18.50;99.90;;;;;;5064143;28;20024;-40
2022/10/23 12:45:36;;;;;;;2.08;1.50;;;18.50;99.90;;;;;;5073343;28;20090;-41
2022/10/23 12:48:02;;;;;;;3.42;1.90;;;18.60;99.90;;;;;;5063127;28;20055;-38
2022/10/23 12:50:30;;;;;;;3.97;1.75;;;18.60;99.90;;;;;;5070027;28;20098;-38
2022/10/23 12:52:59;;;;;;;3.97;2.10;;;18.60;99.90;;;;;;5082444;28;20157;-38
2022/10/23 12:55:31;;;;;;;3.15;2.00;;;18.60;99.90;;;;;;5069622;28;20035;-40
2022/10/23 12:57:57;;;;;;;3.55;1.85;;;18.70;99.90;;;;;;5083160;28;20024;-40
2022/10/23 13:00:24;;;;;;;3.20;1.95;;;18.70;99.90;;;;;;5074195;28;20028;-41
2022/10/23 13:03:03;;;;;;;3.00;2.20;;;18.70;99.90;;;;;;5073893;28;20070;-38
2022/10/23 13:05:29;;;;;;;3.20;2.00;;;18.80;99.90;;;;;;5069867;28;20175;-40
2022/10/23 13:07:56;;;;;;;3.15;2.10;;;18.70;99.90;;;;;;5082106;28;20031;-38
2022/10/23 13:10:23;;;;;;;3.40;2.20;;;18.80;99.90;;;;;;5072124;28;20025;-39
2022/10/23 13:13:00;;;;;;;4.45;2.00;;;18.80;99.90;;;;;;5079971;28;20059;-39